Time;durP1;ratioP1;P1;durP2;ratioP2;P2;SDS_P1;SDS_P2;PMS_P1;PMS_P2;Temp;Humidity;BMP_temperature;BMP_pressure;BME280_temperature;BME280_humidity;BME280_pressure;Samples;Min_cycle;Max_cycle;Signal;HPM_P1;HPM_P2
2023/12/14 00:00:04;;;;;;;2.53;1.30;;;3.10;99.90;;;;;;5009550;28;20030;-77
2023/12/14 00:02:30;;;;;;;2.60;1.40;;;3.10;99.90;;;;;;5006861;28;20037;-77
2023/12/14 00:04:55;;;;;;;2.85;1.42;;;3.00;99.90;;;;;;5008452;28;20483;-77
2023/12/14 00:07:21;;;;;;;3.28;1.48;;;3.00;99.90;;;;;;5009837;28;20073;-77
2023/12/14 00:09:46;;;;;;;3.45;1.17;;;3.10;99.90;;;;;;5009805;28;20080;-77
2023/12/14 00:12:11;;;;;;;2.58;1.30;;;3.10;99.90;;;;;;4987466;28;20033;-77
2023/12/14 00:14:37;;;;;;;2.47;1.63;;;3.00;99.90;;;;;;5012765;28;20449;-77
2023/12/14 00:17:02;;;;;;;2.38;1.20;;;3.00;99.90;;;;;;5007750;28;20037;-77
2023/12/14 00:19:28;;;;;;;2.60;1.20;;;3.00;99.90;;;;;;5003526;28;20026;-77
2023/12/14 00:21:53;;;;;;;1.30;0.75;;;3.00;99.90;;;;;;5012353;28;20072;-77
2023/12/14 00:24:19;;;;;;;3.13;1.40;;;3.10;99.90;;;;;;5016933;28;20040;-77
2023/12/14 00:26:44;;;;;;;5.03;1.30;;;3.10;99.90;;;;;;5011891;28;20068;-76
2023/12/14 00:29:10;;;;;;;3.15;1.20;;;3.10;99.90;;;;;;5010806;28;20096;-76
2023/12/14 00:31:35;;;;;;;2.63;1.00;;;3.10;99.90;;;;;;5012473;28;20038;-77
2023/12/14 00:34:01;;;;;;;2.97;1.38;;;3.10;99.90;;;;;;5011565;28;20050;-77
2023/12/14 00:36:26;;;;;;;2.65;1.20;;;3.10;99.90;;;;;;5010805;28;20458;-77
2023/12/14 00:38:52;;;;;;;1.90;1.10;;;3.10;99.90;;;;;;5012900;28;20353;-76
2023/12/14 00:41:17;;;;;;;2.33;1.15;;;3.10;99.90;;;;;;5011537;28;20041;-77
2023/12/14 00:43:43;;;;;;;2.60;1.30;;;3.10;99.90;;;;;;5012708;28;20041;-77
2023/12/14 00:46:09;;;;;;;1.55;0.73;;;3.10;99.90;;;;;;5010736;28;20037;-77
2023/12/14 00:48:34;;;;;;;1.63;1.00;;;3.10;99.90;;;;;;5011944;28;20041;-77
2023/12/14 00:51:00;;;;;;;3.83;1.40;;;3.10;99.90;;;;;;5010938;28;20057;-77
2023/12/14 00:53:25;;;;;;;3.22;1.13;;;3.10;99.90;;;;;;5008377;28;20565;-77
2023/12/14 00:55:51;;;;;;;2.35;1.15;;;3.10;99.90;;;;;;5009638;28;20092;-77
2023/12/14 00:58:16;;;;;;;2.35;0.95;;;3.10;99.90;;;;;;5012642;28;20463;-77
2023/12/14 01:00:42;;;;;;;1.65;0.82;;;3.20;99.90;;;;;;5011504;28;20069;-76
2023/12/14 01:03:07;;;;;;;1.13;0.63;;;3.10;99.90;;;;;;5008404;28;20037;-77
2023/12/14 01:05:33;;;;;;;2.00;1.10;;;3.20;99.90;;;;;;5012662;28;20037;-77
2023/12/14 01:07:58;;;;;;;1.80;0.82;;;3.10;99.90;;;;;;5018392;28;20037;-76
2023/12/14 01:10:24;;;;;;;2.83;1.35;;;3.10;99.90;;;;;;5010018;28;20034;-78
2023/12/14 01:12:50;;;;;;;2.00;1.02;;;3.20;99.90;;;;;;4993143;28;20061;-77
2023/12/14 01:15:15;;;;;;;1.85;0.98;;;3.20;99.90;;;;;;5010741;28;20030;-76
2023/12/14 01:17:41;;;;;;;1.58;0.90;;;3.20;99.90;;;;;;5004243;28;20038;-77
2023/12/14 01:20:07;;;;;;;3.75;0.70;;;3.10;99.90;;;;;;5009126;28;20030;-77
2023/12/14 01:22:33;;;;;;;3.05;1.10;;;3.20;99.90;;;;;;5010126;28;20038;-78
2023/12/14 01:24:59;;;;;;;1.98;1.00;;;3.20;99.90;;;;;;5009657;28;20148;-77
2023/12/14 01:27:25;;;;;;;2.00;0.90;;;3.20;99.90;;;;;;5008742;28;20077;-78
2023/12/14 01:29:50;;;;;;;2.17;1.10;;;3.20;99.90;;;;;;5010259;28;20025;-77
2023/12/14 01:32:15;;;;;;;1.95;0.95;;;3.20;99.90;;;;;;5008869;28;20573;-77
2023/12/14 01:34:41;;;;;;;1.60;0.85;;;3.20;99.90;;;;;;5004661;28;20172;-77
2023/12/14 01:37:07;;;;;;;2.25;1.10;;;3.20;99.90;;;;;;5012180;28;20490;-77
2023/12/14 01:39:32;;;;;;;1.55;0.73;;;3.20;99.90;;;;;;5013195;28;20402;-77
2023/12/14 01:41:58;;;;;;;1.40;0.63;;;3.20;99.90;;;;;;5011246;28;20482;-77
2023/12/14 01:44:24;;;;;;;1.67;0.90;;;3.20;99.90;;;;;;5013695;28;20034;-77
2023/12/14 01:46:49;;;;;;;1.60;0.70;;;3.30;99.90;;;;;;5010658;28;20124;-77
2023/12/14 01:49:15;;;;;;;1.75;0.73;;;3.30;99.90;;;;;;5009760;28;20034;-78
2023/12/14 01:51:40;;;;;;;2.80;0.90;;;3.30;99.90;;;;;;5009276;28;20081;-77
2023/12/14 01:54:06;;;;;;;2.50;0.98;;;3.20;99.90;;;;;;5010838;28;20029;-77
2023/12/14 01:56:31;;;;;;;1.95;1.15;;;3.20;99.90;;;;;;5012317;28;20402;-77
2023/12/14 01:58:57;;;;;;;2.53;0.90;;;3.30;99.90;;;;;;5009354;28;20048;-77
2023/12/14 02:01:38;;;;;;;2.33;1.10;;;3.30;99.90;;;;;;5009203;28;20445;-77
2023/12/14 02:04:06;;;;;;;;;;;3.30;99.90;;;;;;5009152;28;20485;-77
2023/12/14 02:06:31;;;;;;;1.40;0.82;;;3.30;99.90;;;;;;5010011;28;19925;-77
2023/12/14 02:08:57;;;;;;;2.13;0.80;;;3.30;99.90;;;;;;5027191;28;20034;-77
2023/12/14 02:11:22;;;;;;;1.38;0.68;;;3.30;99.90;;;;;;5012000;28;20068;-77
2023/12/14 02:13:48;;;;;;;1.52;0.73;;;3.30;99.90;;;;;;4988362;28;20438;-77
2023/12/14 02:16:13;;;;;;;0.90;0.55;;;3.30;99.90;;;;;;5006862;28;20064;-77
2023/12/14 02:18:39;;;;;;;1.17;0.70;;;3.30;99.90;;;;;;5009960;28;20022;-76
2023/12/14 02:21:05;;;;;;;0.82;0.52;;;3.30;99.90;;;;;;5013096;28;20378;-77
2023/12/14 02:23:30;;;;;;;2.58;0.90;;;3.30;99.90;;;;;;5011115;28;20026;-77
2023/12/14 02:25:56;;;;;;;1.10;0.60;;;3.20;99.90;;;;;;5009141;28;20394;-77
2023/12/14 02:28:21;;;;;;;1.73;0.63;;;3.30;99.90;;;;;;5008532;28;20046;-77
2023/12/14 02:30:47;;;;;;;1.20;0.70;;;3.30;99.90;;;;;;5011552;28;20454;-77
2023/12/14 02:33:12;;;;;;;1.55;0.82;;;3.30;99.90;;;;;;5007779;28;20156;-76
2023/12/14 02:35:38;;;;;;;1.70;0.70;;;3.30;99.90;;;;;;5010813;28;20038;-77
2023/12/14 02:38:03;;;;;;;1.38;0.80;;;3.20;99.90;;;;;;5007720;28;20038;-77
2023/12/14 02:40:28;;;;;;;1.50;0.82;;;3.20;99.90;;;;;;5010630;28;20038;-77
2023/12/14 02:42:54;;;;;;;1.13;0.60;;;3.20;99.90;;;;;;5008986;28;20026;-77
2023/12/14 02:45:19;;;;;;;0.70;0.57;;;3.20;99.90;;;;;;5010461;28;20062;-77
2023/12/14 02:47:47;;;;;;;1.38;0.50;;;3.30;99.90;;;;;;5008544;28;20474;-77
2023/12/14 02:50:13;;;;;;;2.10;0.50;;;3.30;99.90;;;;;;5008097;28;20080;-77
2023/12/14 02:52:38;;;;;;;1.52;0.73;;;3.30;99.90;;;;;;5010169;28;20042;-77
2023/12/14 02:55:04;;;;;;;1.77;0.80;;;3.20;99.90;;;;;;5011985;28;20054;-77
2023/12/14 02:57:29;;;;;;;1.60;0.93;;;3.20;99.90;;;;;;5010833;28;20064;-77
2023/12/14 02:59:55;;;;;;;0.85;0.43;;;3.20;99.90;;;;;;5010377;28;20041;-77
2023/12/14 03:02:20;;;;;;;1.88;0.57;;;3.20;99.90;;;;;;5009218;28;20038;-77
2023/12/14 03:04:46;;;;;;;0.45;0.45;;;3.20;99.90;;;;;;5012388;28;20026;-77
2023/12/14 03:07:11;;;;;;;2.42;0.68;;;3.20;99.90;;;;;;5011598;28;20061;-77
2023/12/14 03:09:41;;;;;;;0.57;0.57;;;3.20;99.90;;;;;;5008544;28;20042;-77
2023/12/14 03:12:07;;;;;;;1.17;0.63;;;3.20;99.90;;;;;;5013847;28;20034;-77
2023/12/14 03:14:33;;;;;;;0.63;0.30;;;3.20;99.90;;;;;;4991370;28;20529;-76
2023/12/14 03:16:59;;;;;;;1.38;0.80;;;3.30;99.90;;;;;;5004552;28;20025;-77
2023/12/14 03:19:24;;;;;;;0.75;0.47;;;3.30;99.90;;;;;;5007453;28;20492;-77
2023/12/14 03:21:50;;;;;;;1.05;0.93;;;3.30;99.90;;;;;;5010531;28;20026;-77
2023/12/14 03:24:15;;;;;;;1.10;0.65;;;3.30;99.90;;;;;;5010035;28;20030;-77
2023/12/14 03:26:41;;;;;;;2.33;0.50;;;3.30;99.90;;;;;;5008120;28;20042;-77
2023/12/14 03:29:07;;;;;;;0.68;0.50;;;3.30;99.90;;;;;;5009370;28;20389;-77
2023/12/14 03:31:33;;;;;;;1.15;0.40;;;3.30;99.90;;;;;;5010351;28;20163;-77
2023/12/14 03:33:58;;;;;;;0.85;0.55;;;3.30;99.90;;;;;;5005598;28;20117;-77
2023/12/14 03:36:26;;;;;;;0.98;0.57;;;3.30;99.90;;;;;;5004486;28;20037;-77
2023/12/14 03:38:52;;;;;;;0.50;0.50;;;3.30;99.90;;;;;;5012201;28;20037;-77
2023/12/14 03:41:17;;;;;;;0.77;0.40;;;3.30;99.90;;;;;;5010751;28;20477;-76
2023/12/14 03:43:44;;;;;;;1.13;0.73;;;3.30;99.90;;;;;;5008967;28;20034;-77
2023/12/14 03:46:09;;;;;;;1.60;0.60;;;3.30;99.90;;;;;;5008318;28;20030;-77
2023/12/14 03:48:35;;;;;;;1.25;0.90;;;3.30;99.90;;;;;;5008126;28;20371;-77
2023/12/14 03:51:04;;;;;;;1.10;0.57;;;3.40;99.90;;;;;;5008788;28;20061;-77
2023/12/14 03:53:30;;;;;;;0.80;0.50;;;3.40;99.90;;;;;;5006533;28;20030;-77
2023/12/14 03:55:57;;;;;;;0.77;0.68;;;3.40;99.90;;;;;;5009067;28;20032;-76
2023/12/14 03:58:22;;;;;;;1.48;0.68;;;3.40;99.90;;;;;;5015143;28;20030;-77
2023/12/14 04:00:48;;;;;;;0.82;0.52;;;3.40;99.90;;;;;;5008915;28;20041;-77
2023/12/14 04:03:13;;;;;;;0.77;0.57;;;3.40;99.90;;;;;;5010110;28;20041;-77
2023/12/14 04:05:39;;;;;;;1.55;0.63;;;3.40;99.90;;;;;;5012622;28;20402;-77
2023/12/14 04:08:05;;;;;;;1.33;0.60;;;3.40;99.90;;;;;;5013263;28;20073;-77
2023/12/14 04:10:30;;;;;;;1.85;0.65;;;3.50;99.90;;;;;;5017745;28;20033;-77
2023/12/14 04:12:56;;;;;;;1.63;0.80;;;3.40;99.90;;;;;;4992403;28;20471;-77
2023/12/14 04:15:22;;;;;;;0.98;0.77;;;3.40;99.90;;;;;;5013579;28;20034;-77
2023/12/14 04:17:47;;;;;;;0.75;0.60;;;3.40;99.90;;;;;;5009318;28;20041;-77
2023/12/14 04:20:15;;;;;;;1.77;0.77;;;3.40;99.90;;;;;;5012037;28;20386;-77
2023/12/14 04:22:41;;;;;;;1.45;0.80;;;3.50;99.90;;;;;;5016592;28;20383;-77
2023/12/14 04:25:07;;;;;;;3.08;1.15;;;3.40;99.90;;;;;;5010651;28;20080;-77
2023/12/14 04:27:33;;;;;;;0.90;0.50;;;3.40;99.90;;;;;;5013117;28;20132;-77
2023/12/14 04:29:58;;;;;;;0.57;0.50;;;3.40;99.90;;;;;;5014994;28;20044;-77
2023/12/14 04:32:23;;;;;;;1.23;0.63;;;3.40;99.90;;;;;;5017248;28;20018;-77
2023/12/14 04:34:49;;;;;;;1.80;0.75;;;3.40;99.90;;;;;;5008656;28;20034;-77
2023/12/14 04:37:14;;;;;;;1.05;0.82;;;3.40;99.90;;;;;;5014254;28;20038;-77
2023/12/14 04:39:40;;;;;;;1.30;0.70;;;3.50;99.90;;;;;;5013321;28;20026;-77
2023/12/14 04:42:05;;;;;;;1.25;0.63;;;3.40;99.90;;;;;;5011565;28;20033;-77
2023/12/14 04:44:31;;;;;;;1.10;0.65;;;3.50;99.90;;;;;;5012518;28;20100;-77
2023/12/14 04:46:56;;;;;;;1.20;0.82;;;3.40;99.90;;;;;;5011061;28;20034;-77
2023/12/14 04:49:22;;;;;;;3.08;1.10;;;3.40;99.90;;;;;;5010328;28;20095;-77
2023/12/14 04:51:47;;;;;;;1.52;0.77;;;3.50;99.90;;;;;;5011776;28;20054;-77
2023/12/14 04:54:13;;;;;;;1.05;0.95;;;3.50;99.90;;;;;;5012778;28;20137;-77
2023/12/14 04:56:38;;;;;;;1.50;0.80;;;3.50;99.90;;;;;;5008130;28;20082;-77
2023/12/14 04:59:04;;;;;;;1.23;0.52;;;3.50;99.90;;;;;;5009825;28;20088;-77
2023/12/14 05:01:29;;;;;;;1.98;1.05;;;3.40;99.90;;;;;;5010843;28;20046;-77
2023/12/14 05:03:55;;;;;;;1.55;0.70;;;3.40;99.90;;;;;;5008981;28;20030;-77
2023/12/14 05:06:20;;;;;;;2.05;0.60;;;3.40;99.90;;;;;;5012266;28;20088;-77
2023/12/14 05:08:46;;;;;;;1.10;0.57;;;3.40;99.90;;;;;;5018074;28;20113;-77
2023/12/14 05:11:14;;;;;;;2.50;0.75;;;3.40;99.90;;;;;;5017394;28;20099;-76
2023/12/14 05:13:40;;;;;;;3.47;1.58;;;3.40;99.90;;;;;;4986673;28;20104;-76
2023/12/14 05:16:06;;;;;;;7.30;2.15;;;3.40;99.90;;;;;;5010232;28;20053;-77
2023/12/14 05:18:32;;;;;;;4.50;1.85;;;3.40;99.90;;;;;;5007549;28;20036;-77
2023/12/14 05:20:59;;;;;;;3.15;0.85;;;3.50;99.90;;;;;;5009544;28;20034;-77
2023/12/14 05:23:24;;;;;;;4.47;1.85;;;3.40;99.90;;;;;;5012133;28;20498;-77
2023/12/14 05:25:50;;;;;;;3.30;1.55;;;3.40;99.90;;;;;;5010883;28;20045;-73
2023/12/14 05:28:16;;;;;;;5.03;1.90;;;3.50;99.90;;;;;;5022428;28;20037;-73
2023/12/14 05:30:41;;;;;;;3.80;1.40;;;3.40;99.90;;;;;;5010926;28;20478;-75
2023/12/14 05:33:07;;;;;;;2.53;1.45;;;3.40;99.90;;;;;;5009563;28;20069;-74
2023/12/14 05:35:32;;;;;;;1.60;0.80;;;3.40;99.90;;;;;;5009328;28;20409;-74
2023/12/14 05:37:58;;;;;;;1.17;0.65;;;3.40;99.90;;;;;;5013104;28;20026;-74
2023/12/14 05:40:23;;;;;;;1.70;0.90;;;3.50;99.90;;;;;;5011917;28;20076;-74
2023/12/14 05:42:49;;;;;;;2.08;1.08;;;3.40;99.90;;;;;;5010833;28;20402;-74
2023/12/14 05:45:14;;;;;;;1.92;0.75;;;3.50;99.90;;;;;;5013235;28;20026;-74
2023/12/14 05:47:41;;;;;;;1.25;0.80;;;3.50;99.90;;;;;;5010681;28;20038;-75
2023/12/14 05:50:09;;;;;;;2.35;0.80;;;3.50;99.90;;;;;;5009066;28;20034;-74
2023/12/14 05:52:35;;;;;;;1.52;0.55;;;3.40;99.90;;;;;;5011564;28;20483;-73
2023/12/14 05:55:00;;;;;;;3.33;0.85;;;3.50;99.90;;;;;;5006266;28;20095;-74
2023/12/14 05:57:26;;;;;;;1.67;0.60;;;3.50;99.90;;;;;;5011846;28;20046;-74
2023/12/14 05:59:51;;;;;;;1.05;0.70;;;3.50;99.90;;;;;;5009486;28;20029;-73
2023/12/14 06:02:17;;;;;;;1.65;0.80;;;3.50;99.90;;;;;;5014180;28;20536;-74
2023/12/14 06:04:42;;;;;;;2.03;0.98;;;3.50;99.90;;;;;;5009248;28;20037;-74
2023/12/14 06:07:08;;;;;;;1.58;0.73;;;3.50;99.90;;;;;;5004363;28;20046;-74
2023/12/14 06:09:34;;;;;;;1.85;0.90;;;3.50;99.90;;;;;;5004112;28;20460;-74
2023/12/14 06:12:03;;;;;;;2.05;0.85;;;3.50;99.90;;;;;;5009362;28;20073;-74
2023/12/14 06:14:29;;;;;;;2.05;0.90;;;3.40;99.90;;;;;;4986273;28;20120;-74
2023/12/14 06:16:55;;;;;;;1.45;1.00;;;3.40;99.90;;;;;;5008792;28;20066;-74
2023/12/14 06:19:20;;;;;;;2.33;1.05;;;3.40;99.90;;;;;;5008632;28;20529;-74
2023/12/14 06:21:46;;;;;;;3.47;1.40;;;3.40;99.90;;;;;;5001278;28;20034;-74
2023/12/14 06:24:11;;;;;;;1.42;0.73;;;3.50;99.90;;;;;;5014935;28;20160;-74
2023/12/14 06:26:44;;;;;;;1.75;0.95;;;3.40;99.90;;;;;;5001863;28;20053;-69
2023/12/14 06:29:10;;;;;;;1.73;0.95;;;3.40;99.90;;;;;;5013941;28;20036;-73
2023/12/14 06:31:37;;;;;;;1.35;0.90;;;3.40;99.90;;;;;;5007658;28;20490;-71
2023/12/14 06:34:03;;;;;;;1.55;0.90;;;3.40;99.90;;;;;;5004349;28;20540;-74
2023/12/14 06:36:30;;;;;;;1.23;0.73;;;3.40;99.90;;;;;;5007028;28;20153;-73
2023/12/14 06:38:57;;;;;;;1.77;0.68;;;3.40;99.90;;;;;;5003550;28;20034;-74
2023/12/14 06:41:23;;;;;;;1.88;1.00;;;3.40;99.90;;;;;;5004089;28;20263;-73
2023/12/14 06:43:49;;;;;;;2.22;0.95;;;3.30;99.90;;;;;;5008991;28;20113;-74
2023/12/14 06:46:15;;;;;;;1.77;0.90;;;3.40;99.90;;;;;;5009790;28;20042;-74
2023/12/14 06:48:40;;;;;;;1.83;1.08;;;3.30;99.90;;;;;;5007259;28;20030;-74
2023/12/14 06:51:06;;;;;;;3.00;1.10;;;3.30;99.90;;;;;;5004882;28;20038;-73
2023/12/14 06:53:32;;;;;;;1.73;0.95;;;3.30;99.90;;;;;;5006890;28;20038;-74
2023/12/14 06:55:57;;;;;;;2.75;0.95;;;3.30;99.90;;;;;;5003880;28;20034;-74
2023/12/14 06:58:22;;;;;;;2.60;1.20;;;3.40;99.90;;;;;;5001977;28;20077;-74
2023/12/14 07:00:48;;;;;;;1.65;0.90;;;3.40;99.90;;;;;;5010059;28;20037;-74
2023/12/14 07:03:14;;;;;;;2.63;1.15;;;3.40;99.90;;;;;;4999585;28;20534;-74
2023/12/14 07:05:39;;;;;;;3.13;1.63;;;3.40;99.90;;;;;;5001422;28;20044;-74
2023/12/14 07:08:05;;;;;;;1.85;0.68;;;3.40;99.90;;;;;;5005413;28;20506;-74
2023/12/14 07:10:30;;;;;;;1.67;0.90;;;3.40;99.90;;;;;;5005658;28;20282;-74
2023/12/14 07:12:56;;;;;;;1.13;0.70;;;3.40;99.90;;;;;;4980178;28;20486;-74
2023/12/14 07:15:21;;;;;;;2.00;0.80;;;3.40;99.90;;;;;;5009638;28;20034;-74
2023/12/14 07:17:47;;;;;;;2.78;1.20;;;3.40;99.90;;;;;;5008485;28;20048;-74
2023/12/14 07:20:12;;;;;;;2.25;0.80;;;3.30;99.90;;;;;;5007773;28;20041;-74
2023/12/14 07:22:38;;;;;;;2.22;0.95;;;3.40;99.90;;;;;;5010632;28;20382;-74
2023/12/14 07:25:04;;;;;;;3.67;1.08;;;3.40;99.90;;;;;;5016251;28;20097;-74
2023/12/14 07:27:29;;;;;;;2.85;1.08;;;3.30;99.90;;;;;;5008551;28;20096;-74
2023/12/14 07:29:55;;;;;;;1.33;0.90;;;3.30;99.90;;;;;;5009387;28;20109;-74
2023/12/14 07:32:21;;;;;;;1.98;0.95;;;3.30;99.90;;;;;;5010950;28;20026;-74
2023/12/14 07:34:47;;;;;;;1.65;0.98;;;3.30;99.90;;;;;;5023658;28;20545;-74
2023/12/14 07:37:12;;;;;;;2.22;1.15;;;3.30;99.90;;;;;;5008190;28;20038;-74
2023/12/14 07:39:38;;;;;;;1.77;0.85;;;3.30;99.90;;;;;;5010938;28;20034;-74
2023/12/14 07:42:04;;;;;;;2.00;0.80;;;3.40;99.90;;;;;;5007432;28;20101;-74
2023/12/14 07:44:30;;;;;;;2.28;1.15;;;3.30;99.90;;;;;;5013520;28;20069;-74
2023/12/14 07:46:56;;;;;;;1.42;0.88;;;3.30;99.90;;;;;;5015520;28;20036;-74
2023/12/14 07:49:23;;;;;;;1.52;0.90;;;3.40;99.90;;;;;;5008907;28;20033;-74
2023/12/14 07:51:49;;;;;;;3.47;1.20;;;3.40;99.90;;;;;;5013683;28;20445;-74
2023/12/14 07:54:14;;;;;;;3.05;0.93;;;3.40;99.90;;;;;;5026008;28;20021;-74
2023/12/14 07:56:40;;;;;;;2.55;1.17;;;3.40;99.90;;;;;;5011809;28;20042;-74
2023/12/14 07:59:07;;;;;;;2.35;0.90;;;3.40;99.90;;;;;;5006454;28;20387;-74
2023/12/14 08:01:33;;;;;;;2.88;0.90;;;3.40;99.90;;;;;;5010624;28;20046;-74
2023/12/14 08:03:59;;;;;;;2.55;1.05;;;3.50;99.90;;;;;;5003261;28;20031;-74
2023/12/14 08:06:24;;;;;;;3.00;1.20;;;3.40;99.90;;;;;;5008468;28;20049;-74
2023/12/14 08:08:50;;;;;;;3.15;1.35;;;3.50;99.90;;;;;;5012271;28;20041;-74
2023/12/14 08:11:15;;;;;;;2.80;1.45;;;3.50;99.90;;;;;;5012063;28;20168;-74
2023/12/14 08:13:41;;;;;;;3.00;1.40;;;3.50;99.90;;;;;;4987496;28;20465;-74
2023/12/14 08:16:08;;;;;;;3.13;1.50;;;3.50;99.90;;;;;;5014747;28;20472;-74
2023/12/14 08:18:33;;;;;;;2.30;1.27;;;3.50;99.90;;;;;;5006965;28;20120;-74
2023/12/14 08:20:59;;;;;;;2.63;1.25;;;3.50;99.90;;;;;;5011415;28;20113;-74
2023/12/14 08:23:27;;;;;;;3.55;1.88;;;3.60;99.90;;;;;;5012726;28;20069;-74
2023/12/14 08:25:56;;;;;;;2.13;1.25;;;3.60;99.90;;;;;;5009506;28;20030;-74
2023/12/14 08:28:22;;;;;;;3.22;1.52;;;3.60;99.90;;;;;;5013588;28;20034;-74
2023/12/14 08:30:48;;;;;;;3.30;1.63;;;3.60;99.90;;;;;;5013954;28;20029;-74
2023/12/14 08:33:13;;;;;;;2.20;1.30;;;3.60;99.90;;;;;;5005504;28;20022;-74
2023/12/14 08:35:39;;;;;;;3.28;1.83;;;3.60;99.90;;;;;;5010394;28;20592;-73
2023/12/14 08:38:04;;;;;;;3.55;1.88;;;3.60;99.90;;;;;;5011455;28;20042;-73
2023/12/14 08:40:30;;;;;;;3.42;1.23;;;3.70;99.90;;;;;;5013745;28;20026;-73
2023/12/14 08:42:56;;;;;;;3.03;1.50;;;3.70;99.90;;;;;;5012153;28;20029;-73
2023/12/14 08:45:22;;;;;;;3.28;1.60;;;3.70;99.90;;;;;;5013813;28;20037;-73
2023/12/14 08:47:47;;;;;;;3.97;1.85;;;3.70;99.90;;;;;;5011051;28;20034;-73
2023/12/14 08:50:13;;;;;;;3.58;1.50;;;3.80;99.90;;;;;;5010479;28;20042;-74
2023/12/14 08:52:39;;;;;;;2.47;1.40;;;3.80;99.90;;;;;;5012707;28;20038;-73
2023/12/14 08:55:05;;;;;;;5.00;2.15;;;3.80;99.90;;;;;;5012209;28;20033;-73
2023/12/14 08:57:31;;;;;;;3.75;1.85;;;3.80;99.90;;;;;;5012538;28;20061;-73
2023/12/14 08:59:56;;;;;;;2.63;1.15;;;3.90;99.90;;;;;;5012688;28;20609;-73
2023/12/14 09:02:22;;;;;;;3.90;1.75;;;3.90;99.90;;;;;;5011575;28;20045;-73
2023/12/14 09:04:47;;;;;;;4.38;1.75;;;3.90;99.90;;;;;;5021652;28;20104;-74
2023/12/14 09:07:13;;;;;;;3.30;1.73;;;3.90;99.90;;;;;;5010566;28;20045;-73
2023/12/14 09:09:38;;;;;;;3.65;1.50;;;3.90;99.90;;;;;;5016099;28;20464;-73
2023/12/14 09:12:04;;;;;;;4.05;1.73;;;4.00;99.90;;;;;;5014042;28;20113;-73
2023/12/14 09:14:30;;;;;;;5.13;2.03;;;4.00;99.90;;;;;;4987185;28;20054;-73
2023/12/14 09:16:56;;;;;;;4.35;1.70;;;4.00;99.90;;;;;;5012809;28;20029;-73
2023/12/14 09:19:21;;;;;;;5.03;2.10;;;4.00;99.90;;;;;;5009897;28;20087;-73
2023/12/14 09:21:47;;;;;;;4.05;1.83;;;4.00;99.90;;;;;;5010206;28;20044;-73
2023/12/14 09:24:12;;;;;;;5.05;1.67;;;4.00;99.90;;;;;;5011743;28;20485;-73
2023/12/14 09:26:38;;;;;;;4.90;1.75;;;4.00;99.90;;;;;;5012226;28;20108;-73
2023/12/14 09:29:03;;;;;;;3.28;1.70;;;4.00;99.90;;;;;;5011196;28;20089;-74
2023/12/14 09:31:29;;;;;;;5.97;2.05;;;4.10;99.90;;;;;;5011314;28;20561;-73
2023/12/14 09:33:54;;;;;;;3.78;2.00;;;4.10;99.90;;;;;;5010591;28;20640;-73
2023/12/14 09:36:20;;;;;;;5.03;2.42;;;4.10;99.90;;;;;;5013959;28;20038;-73
2023/12/14 09:38:45;;;;;;;5.45;1.77;;;4.10;99.90;;;;;;5009508;28;20033;-73
2023/12/14 09:41:11;;;;;;;4.15;1.80;;;4.10;99.90;;;;;;5010825;28;20478;-73
2023/12/14 09:43:37;;;;;;;4.78;2.58;;;4.10;99.90;;;;;;5012966;28;20476;-73
2023/12/14 09:46:03;;;;;;;4.20;2.00;;;4.10;99.90;;;;;;5010486;28;20506;-73
2023/12/14 09:48:29;;;;;;;3.75;1.83;;;4.20;99.90;;;;;;5007983;28;20077;-74
2023/12/14 09:50:55;;;;;;;5.15;2.17;;;4.20;99.90;;;;;;5008924;28;20202;-74
2023/12/14 09:53:21;;;;;;;4.32;2.05;;;4.20;99.90;;;;;;5012832;28;20125;-73
2023/12/14 09:55:46;;;;;;;5.63;2.20;;;4.20;99.90;;;;;;5013006;28;20427;-73
2023/12/14 09:58:12;;;;;;;6.07;2.55;;;4.30;99.90;;;;;;5009799;28;20399;-73
2023/12/14 10:00:40;;;;;;;4.45;2.20;;;4.30;99.90;;;;;;5011900;28;20083;-74
2023/12/14 10:03:28;;;;;;;3.92;2.28;;;4.30;99.90;;;;;;5006366;28;20897;-73
2023/12/14 10:05:57;;;;;;;3.75;1.63;;;4.40;99.90;;;;;;5010312;28;20478;-73
2023/12/14 10:08:24;;;;;;;3.78;2.10;;;4.30;99.90;;;;;;5008911;28;20042;-74
2023/12/14 10:10:52;;;;;;;5.18;1.92;;;4.30;99.90;;;;;;5010496;28;20133;-73
2023/12/14 10:13:19;;;;;;;4.80;2.33;;;4.30;99.80;;;;;;4986363;28;20430;-74
2023/12/14 10:15:46;;;;;;;5.88;2.70;;;4.40;99.80;;;;;;5011559;28;20430;-74
2023/12/14 10:18:24;;;;;;;4.88;2.17;;;4.30;99.60;;;;;;5006764;28;20758;-74
2023/12/14 10:20:50;;;;;;;3.88;1.90;;;4.40;99.50;;;;;;5008511;28;20029;-74
2023/12/14 10:23:17;;;;;;;4.88;2.30;;;4.40;99.60;;;;;;5010025;28;20037;-74
2023/12/14 10:25:43;;;;;;;3.97;2.22;;;4.40;99.50;;;;;;5010203;28;20030;-74
2023/12/14 10:28:13;;;;;;;3.90;1.92;;;4.50;99.40;;;;;;5010340;28;20030;-74
2023/12/14 10:30:39;;;;;;;4.15;1.98;;;4.60;99.40;;;;;;5011245;28;20073;-74
2023/12/14 10:33:05;;;;;;;4.88;2.47;;;4.60;99.30;;;;;;5007555;28;20541;-74
2023/12/14 10:35:30;;;;;;;4.68;1.95;;;4.60;99.30;;;;;;5011443;28;20505;-74
2023/12/14 10:38:01;;;;;;;3.83;2.00;;;4.60;99.20;;;;;;5007444;28;20795;-74
2023/12/14 10:40:28;;;;;;;6.22;2.33;;;4.70;99.30;;;;;;5011077;28;20033;-74
2023/12/14 10:42:58;;;;;;;6.25;2.60;;;4.60;99.00;;;;;;5011701;28;20482;-74
2023/12/14 10:45:28;;;;;;;4.70;2.13;;;4.70;99.10;;;;;;5011190;28;20109;-74
2023/12/14 10:47:54;;;;;;;5.03;2.13;;;4.60;99.00;;;;;;5007887;28;20038;-74
2023/12/14 10:50:20;;;;;;;4.38;2.05;;;4.70;99.20;;;;;;5010023;28;20056;-73
2023/12/14 10:52:46;;;;;;;4.97;2.45;;;4.80;99.20;;;;;;5007361;28;20490;-74
2023/12/14 10:55:20;;;;;;;4.55;2.13;;;4.70;98.90;;;;;;5007632;28;20041;-74
2023/12/14 10:57:46;;;;;;;4.50;2.30;;;4.70;98.80;;;;;;5008980;28;20068;-74
2023/12/14 11:00:12;;;;;;;4.75;2.30;;;4.70;98.70;;;;;;5014176;28;20069;-74
2023/12/14 11:02:42;;;;;;;4.47;2.08;;;4.80;98.80;;;;;;5008589;28;20387;-74
2023/12/14 11:05:11;;;;;;;3.33;1.60;;;4.80;98.70;;;;;;5009055;28;20049;-74
2023/12/14 11:07:53;;;;;;;4.97;2.13;;;4.70;98.30;;;;;;5009078;28;20046;-74
2023/12/14 11:10:39;;;;;;;4.63;2.08;;;4.80;98.20;;;;;;5009145;28;20121;-74
2023/12/14 11:13:11;;;;;;;5.47;2.15;;;4.80;98.30;;;;;;4982771;28;20382;-74
2023/12/14 11:15:37;;;;;;;3.90;1.85;;;4.70;98.20;;;;;;5009700;28;20664;-74
2023/12/14 11:18:12;;;;;;;5.75;1.92;;;4.80;98.30;;;;;;5005301;28;20042;-74
2023/12/14 11:20:51;;;;;;;3.38;1.80;;;4.70;98.20;;;;;;5007368;28;20064;-74
2023/12/14 11:23:26;;;;;;;4.60;1.90;;;4.70;98.20;;;;;;5023894;28;20034;-74
2023/12/14 11:26:03;;;;;;;6.57;2.67;;;4.70;98.10;;;;;;5009757;28;20058;-74
2023/12/14 11:28:30;;;;;;;4.53;2.08;;;4.70;98.10;;;;;;5009736;28;20052;-74
2023/12/14 11:30:55;;;;;;;5.68;2.20;;;4.80;98.10;;;;;;5010528;28;20463;-74
2023/12/14 11:33:21;;;;;;;4.53;1.88;;;4.70;98.10;;;;;;5005477;28;20022;-74
2023/12/14 11:35:47;;;;;;;5.30;1.90;;;4.70;98.00;;;;;;5010485;28;20026;-74
2023/12/14 11:38:13;;;;;;;5.30;2.20;;;4.60;98.00;;;;;;5008732;28;20037;-74
2023/12/14 11:40:51;;;;;;;3.38;1.88;;;4.60;98.00;;;;;;5010217;28;20080;-74
2023/12/14 11:43:20;;;;;;;4.43;2.28;;;4.60;98.10;;;;;;5008179;28;20061;-74
2023/12/14 11:45:45;;;;;;;3.38;1.33;;;4.60;98.10;;;;;;5010131;28;20022;-74
2023/12/14 11:48:12;;;;;;;4.28;2.13;;;4.60;98.40;;;;;;5007352;28;20064;-74
2023/12/14 11:50:38;;;;;;;4.40;1.98;;;4.70;98.40;;;;;;5007477;28;20077;-74
2023/12/14 11:53:04;;;;;;;4.15;1.90;;;4.70;98.50;;;;;;5008779;28;20084;-74
2023/12/14 11:55:31;;;;;;;4.00;1.80;;;4.80;98.50;;;;;;5010391;28;20029;-74
2023/12/14 11:57:57;;;;;;;4.07;1.60;;;4.80;98.40;;;;;;5007926;28;20052;-74
2023/12/14 12:00:28;;;;;;;4.18;2.15;;;4.90;98.50;;;;;;5009289;28;20474;-74
2023/12/14 12:03:12;;;;;;;;;;;4.90;98.50;;;;;;5005131;28;20511;-74
2023/12/14 12:05:45;;;;;;;4.20;2.00;;;4.90;98.30;;;;;;5010126;28;19950;-74
2023/12/14 12:08:12;;;;;;;4.30;1.85;;;4.90;98.40;;;;;;5009736;28;20037;-73
2023/12/14 12:10:39;;;;;;;3.15;1.55;;;4.80;98.10;;;;;;5009789;28;20466;-74
2023/12/14 12:13:06;;;;;;;4.45;1.98;;;4.80;98.00;;;;;;5006947;28;20037;-75
2023/12/14 12:15:36;;;;;;;3.22;1.85;;;4.90;98.30;;;;;;5002960;28;20557;-74
2023/12/14 12:18:13;;;;;;;3.13;1.85;;;4.90;98.10;;;;;;5007120;28;20515;-74
2023/12/14 12:20:39;;;;;;;3.95;1.92;;;4.90;98.20;;;;;;5009634;28;20025;-74
2023/12/14 12:23:05;;;;;;;3.50;1.55;;;4.90;98.00;;;;;;5009151;28;20037;-73
2023/12/14 12:25:31;;;;;;;4.32;2.00;;;4.80;97.80;;;;;;5013713;28;20026;-74
2023/12/14 12:28:01;;;;;;;4.47;2.15;;;4.70;97.60;;;;;;5011692;28;20033;-73
2023/12/14 12:30:27;;;;;;;3.83;1.85;;;4.60;97.30;;;;;;5014115;28;20021;-74
2023/12/14 12:32:53;;;;;;;3.65;1.67;;;4.60;97.50;;;;;;5010601;28;20120;-74
2023/12/14 12:35:22;;;;;;;6.15;1.73;;;4.60;97.30;;;;;;5007400;28;20149;-73
2023/12/14 12:37:53;;;;;;;4.50;2.05;;;4.60;97.50;;;;;;5009570;28;20018;-74
2023/12/14 12:40:22;;;;;;;4.55;2.22;;;4.70;97.70;;;;;;5014113;28;20022;-73
2023/12/14 12:42:48;;;;;;;3.53;1.60;;;4.70;97.70;;;;;;5011164;28;20030;-74
2023/12/14 12:45:17;;;;;;;5.75;2.38;;;4.70;98.00;;;;;;5010988;28;20026;-73
2023/12/14 12:47:42;;;;;;;4.40;2.40;;;4.70;98.00;;;;;;5010407;28;20099;-74
2023/12/14 12:50:08;;;;;;;2.58;1.73;;;4.80;98.20;;;;;;5008633;28;20026;-73
2023/12/14 12:52:33;;;;;;;4.93;1.75;;;4.80;98.10;;;;;;5012301;28;20176;-73